Time;durP1;ratioP1;P1;durP2;ratioP2;P2;SDS_P1;SDS_P2;PMS_P1;PMS_P2;Temp;Humidity;BMP_temperature;BMP_pressure;BME280_temperature;BME280_humidity;BME280_pressure;Samples;Min_cycle;Max_cycle;Signal;HPM_P1;HPM_P2
2023/03/27 00:02:15;;;;;;;0.90;0.90;;;18.10;65.20;;;;;;5103138;27;43927;-76
2023/03/27 00:04:43;;;;;;;0.97;0.97;;;18.10;65.40;;;;;;5106418;27;43423;-76
2023/03/27 00:07:11;;;;;;;1.00;1.00;;;18.20;65.20;;;;;;5107311;27;43812;-75
2023/03/27 00:09:39;;;;;;;0.90;0.90;;;18.30;64.80;;;;;;5107503;27;43429;-77
2023/03/27 00:12:08;;;;;;;0.87;0.87;;;18.30;64.60;;;;;;5105521;27;45965;-77
2023/03/27 00:14:36;;;;;;;1.00;1.00;;;18.30;64.70;;;;;;5104036;27;43386;-76
2023/03/27 00:17:04;;;;;;;0.90;0.90;;;18.20;64.80;;;;;;5097590;27;43423;-76
2023/03/27 00:19:33;;;;;;;1.10;1.10;;;18.30;64.90;;;;;;5105716;27;43426;-77
2023/03/27 00:22:01;;;;;;;1.10;1.00;;;18.20;64.70;;;;;;5094544;27;46296;-77
2023/03/27 00:24:28;;;;;;;1.10;1.10;;;18.20;64.80;;;;;;5105227;27;45103;-78
2023/03/27 00:26:57;;;;;;;1.00;1.00;;;18.20;64.90;;;;;;5107275;27;43418;-77
2023/03/27 00:29:26;;;;;;;1.00;1.00;;;18.20;65.00;;;;;;5096789;27;43563;-76
2023/03/27 00:31:54;;;;;;;1.00;1.00;;;18.10;65.10;;;;;;5104032;27;46266;-75
2023/03/27 00:34:22;;;;;;;1.10;1.10;;;18.10;65.10;;;;;;5104384;27;44945;-78
2023/03/27 00:36:52;;;;;;;0.90;0.90;;;18.10;65.00;;;;;;5107248;27;43397;-75
2023/03/27 00:39:20;;;;;;;0.97;0.97;;;18.20;65.10;;;;;;5105082;27;43399;-76
2023/03/27 00:41:48;;;;;;;0.90;0.90;;;18.10;65.10;;;;;;5101980;27;46978;-77
2023/03/27 00:44:21;;;;;;;1.40;1.40;;;18.10;65.10;;;;;;5107296;27;44036;-75
2023/03/27 00:46:51;;;;;;;1.20;1.20;;;18.10;65.40;;;;;;5107345;27;43587;-74
2023/03/27 00:49:19;;;;;;;1.20;1.20;;;18.10;65.30;;;;;;5102109;27;43729;-76
2023/03/27 00:51:47;;;;;;;1.03;1.03;;;18.30;65.00;;;;;;5106972;27;44096;-76
2023/03/27 00:54:16;;;;;;;1.27;1.27;;;18.30;64.50;;;;;;5101267;27;44348;-77
2023/03/27 00:56:44;;;;;;;1.17;1.07;;;18.40;64.40;;;;;;5105753;27;43427;-76
2023/03/27 00:59:14;;;;;;;1.30;1.30;;;18.30;64.40;;;;;;5107341;27;43424;-77
2023/03/27 01:01:42;;;;;;;1.30;1.30;;;18.30;64.70;;;;;;5100373;27;45374;-76
2023/03/27 01:04:12;;;;;;;1.40;1.40;;;18.30;64.60;;;;;;5097511;27;43499;-77
2023/03/27 01:06:41;;;;;;;1.10;1.10;;;18.30;64.60;;;;;;5098691;27;43458;-76
2023/03/27 01:09:09;;;;;;;1.37;1.37;;;18.30;64.70;;;;;;5107224;27;43657;-77
2023/03/27 01:11:52;;;;;;;1.47;1.47;;;18.20;64.80;;;;;;5094080;27;45682;-76
2023/03/27 01:14:24;;;;;;;1.30;1.30;;;18.10;64.90;;;;;;5085592;27;44388;-74
2023/03/27 01:16:58;;;;;;;1.50;1.50;;;18.10;65.10;;;;;;5105010;27;43369;-77
2023/03/27 01:19:50;;;;;;;1.40;1.40;;;18.10;64.90;;;;;;5103480;27;43487;-75
2023/03/27 01:22:31;;;;;;;1.33;1.33;;;18.10;65.00;;;;;;5103315;27;46045;-75
2023/03/27 01:25:28;;;;;;;1.40;1.40;;;18.10;65.00;;;;;;5097947;27;43454;-75
2023/03/27 01:28:21;;;;;;;1.40;1.40;;;18.10;65.20;;;;;;5099098;27;43390;-74
2023/03/27 01:30:51;;;;;;;1.30;1.30;;;18.00;65.30;;;;;;5108778;27;43496;-74
2023/03/27 01:33:32;;;;;;;1.40;1.40;;;18.10;65.30;;;;;;5103159;27;46301;-71
2023/03/27 01:36:26;;;;;;;1.40;1.40;;;18.20;64.90;;;;;;5108260;27;44763;-77
2023/03/27 01:39:17;;;;;;;1.37;1.37;;;18.30;64.50;;;;;;5105080;27;43864;-77
2023/03/27 01:41:49;;;;;;;1.30;1.30;;;18.30;64.30;;;;;;5102419;27;43559;-76
2023/03/27 01:44:19;;;;;;;1.60;1.60;;;18.30;64.60;;;;;;5109901;27;44578;-77
2023/03/27 01:46:48;;;;;;;1.40;1.40;;;18.20;64.60;;;;;;5102876;27;44253;-76
2023/03/27 01:49:18;;;;;;;1.60;1.60;;;18.20;64.40;;;;;;5110312;27;43436;-77
2023/03/27 01:51:48;;;;;;;1.63;1.53;;;18.20;64.50;;;;;;5106093;27;43581;-77
2023/03/27 01:54:20;;;;;;;1.33;1.33;;;18.20;64.60;;;;;;5100174;27;45682;-76
2023/03/27 01:56:52;;;;;;;1.40;1.40;;;18.20;64.80;;;;;;5108222;27;44854;-77
2023/03/27 01:59:23;;;;;;;1.60;1.60;;;18.10;65.10;;;;;;5107317;27;43410;-75
2023/03/27 02:01:53;;;;;;;1.50;1.50;;;18.10;65.00;;;;;;5101433;27;43934;-77
2023/03/27 02:04:22;;;;;;;1.37;1.37;;;18.20;64.90;;;;;;5106045;27;46018;-77
2023/03/27 02:06:51;;;;;;;1.40;1.40;;;18.10;65.00;;;;;;5099113;27;44439;-74
2023/03/27 02:09:22;;;;;;;1.40;1.40;;;18.10;65.00;;;;;;5102385;27;43460;-76
2023/03/27 02:11:51;;;;;;;1.70;1.70;;;18.10;65.10;;;;;;5101692;27;43397;-74
2023/03/27 02:14:20;;;;;;;1.50;1.50;;;18.00;65.30;;;;;;5103102;27;43905;-73
2023/03/27 02:16:51;;;;;;;1.37;1.37;;;18.10;65.20;;;;;;5106879;27;44391;-73
2023/03/27 02:19:22;;;;;;;1.60;1.50;;;18.20;64.80;;;;;;5104621;27;43432;-72
2023/03/27 02:21:50;;;;;;;1.50;1.50;;;18.30;64.60;;;;;;5099514;27;43849;-74
2023/03/27 02:24:18;;;;;;;1.50;1.50;;;18.20;64.40;;;;;;5106504;27;45351;-77
2023/03/27 02:26:48;;;;;;;1.43;1.43;;;18.20;64.60;;;;;;5107812;27;44328;-77
2023/03/27 02:29:31;;;;;;;1.40;1.40;;;18.20;64.80;;;;;;5102583;27;43383;-78
2023/03/27 02:32:10;;;;;;;1.30;1.30;;;18.20;64.70;;;;;;5107780;27;43415;-75
2023/03/27 02:35:08;;;;;;;1.30;1.30;;;18.20;64.60;;;;;;5101863;27;46016;-78
2023/03/27 02:37:45;;;;;;;1.10;1.10;;;18.20;64.80;;;;;;5102561;27;44871;-77
2023/03/27 02:40:21;;;;;;;1.30;1.30;;;18.10;64.80;;;;;;5106937;27;43366;-76
2023/03/27 02:42:59;;;;;;;1.77;1.77;;;18.10;65.10;;;;;;5106218;27;43515;-76
2023/03/27 02:45:31;;;;;;;1.20;1.20;;;18.10;65.10;;;;;;5106422;27;43811;-75
2023/03/27 02:48:01;;;;;;;1.43;1.43;;;18.10;65.00;;;;;;5107121;27;43503;-76
2023/03/27 02:50:31;;;;;;;1.40;1.40;;;18.10;65.00;;;;;;5095018;27;43411;-77
2023/03/27 02:53:08;;;;;;;1.40;1.40;;;18.10;65.10;;;;;;5105312;27;43402;-76
2023/03/27 02:55:37;;;;;;;1.53;1.53;;;18.00;65.00;;;;;;5106669;27;46491;-77
2023/03/27 02:58:12;;;;;;;1.53;1.53;;;18.00;65.30;;;;;;5106975;27;43852;-78
2023/03/27 03:00:54;;;;;;;1.40;1.40;;;18.00;65.20;;;;;;5102770;27;43375;-77
2023/03/27 03:03:34;;;;;;;1.63;1.53;;;18.20;64.90;;;;;;5104449;27;44217;-76
2023/03/27 03:06:13;;;;;;;2.60;1.40;;;18.30;64.50;;;;;;5095363;27;44058;-77
2023/03/27 03:08:42;;;;;;;1.30;1.30;;;18.30;64.20;;;;;;5108182;27;43891;-77
2023/03/27 03:11:13;;;;;;;1.40;1.40;;;18.30;64.30;;;;;;5099748;27;43413;-78
2023/03/27 03:13:42;;;;;;;1.37;1.37;;;18.30;64.60;;;;;;5107249;27;43379;-74
2023/03/27 03:16:11;;;;;;;1.50;1.50;;;18.20;64.40;;;;;;5101834;27;46157;-75
2023/03/27 03:18:40;;;;;;;1.40;1.40;;;18.20;64.40;;;;;;5108054;27;43544;-77
2023/03/27 03:21:08;;;;;;;1.23;1.23;;;18.20;64.50;;;;;;5104607;27;43437;-76
2023/03/27 03:23:37;;;;;;;1.33;1.33;;;18.20;64.60;;;;;;5106652;27;43910;-77
2023/03/27 03:26:06;;;;;;;1.40;1.40;;;18.10;64.80;;;;;;5104704;27;44223;-76
2023/03/27 03:28:47;;;;;;;1.37;1.37;;;18.10;65.00;;;;;;5106410;27;43810;-74
2023/03/27 03:31:42;;;;;;;1.20;1.20;;;18.10;64.80;;;;;;5102873;27;43489;-75
2023/03/27 03:34:11;;;;;;;1.40;1.40;;;18.10;64.90;;;;;;5105905;27;43480;-75
2023/03/27 03:36:40;;;;;;;1.40;1.40;;;18.10;64.90;;;;;;5099956;27;44709;-75
2023/03/27 03:39:10;;;;;;;1.40;1.40;;;18.00;65.00;;;;;;5101024;27;45160;-77
2023/03/27 03:41:38;;;;;;;1.37;1.37;;;18.00;65.20;;;;;;5102714;27;43424;-78
2023/03/27 03:44:07;;;;;;;1.50;1.33;;;18.00;65.20;;;;;;5099069;27;43430;-78
2023/03/27 03:46:35;;;;;;;1.20;1.20;;;18.10;64.80;;;;;;5101533;27;45363;-78
2023/03/27 03:49:04;;;;;;;1.40;1.40;;;18.20;64.50;;;;;;5107602;27;43530;-77
2023/03/27 03:51:32;;;;;;;1.17;1.17;;;18.20;64.40;;;;;;5106144;27;43377;-76
2023/03/27 03:54:00;;;;;;;1.23;1.23;;;18.20;64.60;;;;;;5108181;27;43374;-77
2023/03/27 03:56:29;;;;;;;1.30;1.30;;;18.10;64.70;;;;;;5105815;27;45713;-76
2023/03/27 03:58:57;;;;;;;1.50;1.50;;;18.10;64.60;;;;;;5096538;27;43521;-76
2023/03/27 04:01:27;;;;;;;1.20;1.20;;;18.10;64.60;;;;;;5090531;27;43469;-77
2023/03/27 04:04:01;;;;;;;1.30;1.30;;;18.10;64.80;;;;;;5087005;27;43561;-75
2023/03/27 04:06:42;;;;;;;1.33;1.33;;;18.10;64.80;;;;;;5088210;27;44065;-77
2023/03/27 04:09:10;;;;;;;1.30;1.30;;;18.10;65.00;;;;;;5086390;27;44315;-76
2023/03/27 04:11:56;;;;;;;1.20;1.20;;;18.00;65.00;;;;;;5069108;27;43950;-77
2023/03/27 04:14:41;;;;;;;1.30;1.30;;;18.00;64.80;;;;;;5082543;27;43473;-76
2023/03/27 04:17:32;;;;;;;1.30;1.30;;;18.00;64.90;;;;;;5103508;27;44154;-76
2023/03/27 04:20:04;;;;;;;1.13;1.03;;;18.00;64.90;;;;;;5084711;27;45019;-77
2023/03/27 04:22:36;;;;;;;1.20;1.20;;;18.00;64.80;;;;;;5075881;27;43532;-77
2023/03/27 04:25:08;;;;;;;1.30;1.30;;;18.00;64.80;;;;;;5100422;27;43442;-77
2023/03/27 04:27:36;;;;;;;1.50;1.27;;;18.00;64.80;;;;;;5082734;27;45344;-76
2023/03/27 04:30:15;;;;;;;1.10;1.10;;;18.10;64.40;;;;;;5087946;27;44037;-77
2023/03/27 04:33:03;;;;;;;1.17;1.17;;;18.20;64.00;;;;;;5096933;27;43469;-77
2023/03/27 04:36:00;;;;;;;1.40;1.40;;;18.20;63.70;;;;;;5073986;27;44014;-76
2023/03/27 04:38:48;;;;;;;1.40;1.30;;;18.20;63.80;;;;;;5080480;27;44836;-76
2023/03/27 04:41:17;;;;;;;1.30;1.30;;;18.10;63.90;;;;;;5076744;27;44009;-75
2023/03/27 04:43:45;;;;;;;1.73;1.30;;;18.10;63.80;;;;;;5081200;27;44090;-76
2023/03/27 04:46:13;;;;;;;1.20;1.20;;;18.10;63.70;;;;;;5097845;27;43517;-77
2023/03/27 04:48:44;;;;;;;1.20;1.20;;;18.10;64.00;;;;;;5084165;27;44106;-75
2023/03/27 04:51:26;;;;;;;1.10;1.10;;;18.10;64.10;;;;;;5076847;28;43446;-77
2023/03/27 04:53:55;;;;;;;1.83;1.13;;;18.00;64.20;;;;;;5080619;27;44020;-77
2023/03/27 04:56:24;;;;;;;1.40;1.23;;;18.00;64.00;;;;;;5083564;27;44101;-76
2023/03/27 04:58:54;;;;;;;1.43;1.33;;;18.00;63.80;;;;;;5077575;27;45975;-76
2023/03/27 05:01:24;;;;;;;1.30;1.30;;;18.00;64.10;;;;;;5098588;27;43435;-76
2023/03/27 05:04:11;;;;;;;1.30;1.20;;;18.00;64.30;;;;;;5081578;27;43404;-76
2023/03/27 05:06:48;;;;;;;1.43;1.33;;;17.90;64.20;;;;;;5085561;27;43599;-78
2023/03/27 05:09:17;;;;;;;1.33;1.33;;;17.90;64.30;;;;;;5079026;27;43834;-76
2023/03/27 05:11:48;;;;;;;1.63;1.10;;;17.90;64.40;;;;;;5081299;28;43791;-74
2023/03/27 05:14:16;;;;;;;1.40;1.30;;;18.00;64.10;;;;;;5084333;27;43360;-77
2023/03/27 05:16:45;;;;;;;1.43;1.33;;;18.10;63.80;;;;;;5075430;27;43708;-77
2023/03/27 05:19:15;;;;;;;1.37;1.37;;;18.10;63.50;;;;;;5085636;27;44734;-75
2023/03/27 05:21:50;;;;;;;2.43;1.13;;;18.10;63.50;;;;;;5077040;27;44938;-76
2023/03/27 05:24:20;;;;;;;1.20;1.20;;;18.10;63.70;;;;;;5098620;27;43443;-75
2023/03/27 05:26:48;;;;;;;1.30;1.30;;;18.10;63.80;;;;;;5086988;27;44021;-76
2023/03/27 05:29:16;;;;;;;1.20;1.20;;;18.10;63.50;;;;;;5087874;27;46127;-77
2023/03/27 05:31:47;;;;;;;1.30;1.30;;;18.00;63.70;;;;;;5073381;28;43867;-78
2023/03/27 05:34:37;;;;;;;1.43;1.43;;;18.00;63.90;;;;;;5085460;27;43434;-76
2023/03/27 05:37:07;;;;;;;1.50;1.50;;;17.90;63.80;;;;;;5083048;28;43408;-78
2023/03/27 05:39:48;;;;;;;1.50;1.50;;;17.90;64.00;;;;;;5081301;27;44046;-75
2023/03/27 05:42:16;;;;;;;1.30;1.30;;;17.90;63.90;;;;;;5087284;27;44833;-76
2023/03/27 05:44:44;;;;;;;1.20;1.20;;;17.90;63.80;;;;;;5079400;27;43420;-76
2023/03/27 05:47:13;;;;;;;1.27;1.23;;;17.90;64.00;;;;;;5087672;27;43439;-74
2023/03/27 05:49:43;;;;;;;1.40;1.40;;;17.90;64.10;;;;;;5086318;27;45461;-78
2023/03/27 05:52:12;;;;;;;1.20;1.20;;;17.90;64.10;;;;;;5069143;27;43440;-77
2023/03/27 05:54:41;;;;;;;1.50;1.50;;;17.90;64.20;;;;;;5063802;28;43427;-77
2023/03/27 05:57:10;;;;;;;1.50;1.40;;;17.90;64.30;;;;;;5099794;27;43374;-77
2023/03/27 05:59:40;;;;;;;1.20;1.20;;;17.90;64.40;;;;;;5086536;27;45853;-77
2023/03/27 06:02:22;;;;;;;1.40;1.30;;;17.90;64.40;;;;;;5071670;27;43913;-77
2023/03/27 06:04:57;;;;;;;1.10;1.10;;;17.90;64.20;;;;;;5066544;27;44038;-78
2023/03/27 06:07:29;;;;;;;1.43;1.43;;;17.90;64.20;;;;;;5084429;27;43402;-78
2023/03/27 06:10:03;;;;;;;1.53;1.50;;;18.00;64.00;;;;;;5089625;27;44066;-76
2023/03/27 06:12:43;;;;;;;1.40;1.37;;;18.10;63.60;;;;;;5103404;27;43805;-75
2023/03/27 06:15:24;;;;;;;1.30;1.30;;;18.20;63.20;;;;;;5090892;27;43404;-74
2023/03/27 06:18:10;;;;;;;1.23;1.23;;;18.40;62.90;;;;;;5089625;27;44113;-76
2023/03/27 06:20:41;;;;;;;1.50;1.50;;;18.60;62.30;;;;;;5081774;27;44789;-76
2023/03/27 06:23:09;;;;;;;1.60;1.50;;;18.70;62.60;;;;;;5089724;27;44621;-76
2023/03/27 06:25:38;;;;;;;1.50;1.40;;;18.80;61.40;;;;;;5087108;27;43797;-76
2023/03/27 06:28:08;;;;;;;1.23;1.23;;;19.00;61.10;;;;;;5087575;27;43507;-76
2023/03/27 06:30:42;;;;;;;1.50;1.40;;;19.10;60.70;;;;;;5089877;27;46362;-76
2023/03/27 06:33:26;;;;;;;1.50;1.50;;;19.20;60.40;;;;;;5092450;27;43399;-75
2023/03/27 06:35:59;;;;;;;1.17;1.17;;;19.20;60.20;;;;;;5086258;27;43589;-76
2023/03/27 06:38:33;;;;;;;1.20;1.20;;;19.20;60.20;;;;;;5080073;27;43596;-75
2023/03/27 06:41:03;;;;;;;1.30;1.30;;;19.10;60.50;;;;;;5086148;28;46047;-76
2023/03/27 06:44:06;;;;;;;1.30;1.30;;;18.90;60.90;;;;;;5087744;27;44046;-77
2023/03/27 06:46:47;;;;;;;1.30;1.30;;;18.70;61.60;;;;;;5088878;27;43410;-75
2023/03/27 06:49:32;;;;;;;1.40;1.40;;;18.60;61.80;;;;;;5084534;27;43594;-75
2023/03/27 06:52:10;;;;;;;1.30;1.30;;;18.50;61.90;;;;;;5077942;27;46041;-74
2023/03/27 06:54:38;;;;;;;1.40;1.30;;;18.40;62.00;;;;;;5085889;27;45035;-76
2023/03/27 06:57:06;;;;;;;1.20;1.20;;;18.40;62.50;;;;;;5090174;27;43483;-77
2023/03/27 06:59:56;;;;;;;1.27;1.27;;;18.30;62.60;;;;;;5097163;27;43512;-76
2023/03/27 07:02:43;;;;;;;1.30;1.30;;;18.20;63.10;;;;;;5081713;27;44029;-78
2023/03/27 07:05:32;;;;;;;1.30;1.30;;;18.20;62.80;;;;;;5092842;27;44088;-78
2023/03/27 07:08:02;;;;;;;1.10;1.10;;;18.20;63.00;;;;;;5099372;27;43397;-75
2023/03/27 07:10:48;;;;;;;1.73;1.67;;;18.10;63.10;;;;;;5081964;27;43435;-76
2023/03/27 07:13:27;;;;;;;1.50;1.50;;;18.00;63.30;;;;;;5076319;27;45503;-76
2023/03/27 07:15:58;;;;;;;1.40;1.40;;;18.00;63.50;;;;;;5062226;27;44012;-76
2023/03/27 07:18:27;;;;;;;1.30;1.30;;;18.10;63.60;;;;;;5089340;27;43455;-74
2023/03/27 07:20:55;;;;;;;1.50;1.30;;;18.20;63.20;;;;;;5087117;27;43408;-78
2023/03/27 07:23:26;;;;;;;1.60;1.50;;;18.20;62.90;;;;;;5082834;27;45668;-76
2023/03/27 07:26:01;;;;;;;1.17;1.17;;;18.20;62.50;;;;;;5085161;27;45038;-76
2023/03/27 07:28:49;;;;;;;1.80;1.30;;;18.20;62.50;;;;;;5099416;27;43389;-77
2023/03/27 07:31:17;;;;;;;1.93;1.53;;;18.20;63.20;;;;;;5088689;27;43576;-75
2023/03/27 07:33:48;;;;;;;1.70;1.60;;;18.20;63.00;;;;;;5088781;27;44023;-73
2023/03/27 07:36:18;;;;;;;1.37;1.37;;;18.10;62.70;;;;;;5088246;27;43381;-76
2023/03/27 07:38:56;;;;;;;1.37;1.37;;;18.10;63.00;;;;;;5081197;27;43412;-74
2023/03/27 07:41:28;;;;;;;1.13;1.13;;;18.10;63.20;;;;;;5086670;27;43997;-74
2023/03/27 07:43:59;;;;;;;1.33;1.27;;;18.00;63.30;;;;;;5090698;27;43536;-77
2023/03/27 07:46:36;;;;;;;1.70;1.60;;;18.00;63.30;;;;;;5088224;27;43394;-78
2023/03/27 07:49:04;;;;;;;1.30;1.30;;;18.00;63.30;;;;;;5088186;27;43495;-76
2023/03/27 07:51:34;;;;;;;1.30;1.30;;;18.00;63.40;;;;;;5089359;27;43569;-77
2023/03/27 07:54:04;;;;;;;1.23;1.23;;;18.00;63.50;;;;;;5106811;27;43894;-75
2023/03/27 07:56:38;;;;;;;1.50;1.50;;;18.00;63.70;;;;;;5084510;27;45012;-74
2023/03/27 07:59:32;;;;;;;1.40;1.40;;;17.90;63.60;;;;;;5090362;27;43459;-76
2023/03/27 08:02:12;;;;;;;1.83;1.70;;;18.00;63.60;;;;;;5082335;27;43610;-77
2023/03/27 08:04:40;;;;;;;1.57;1.50;;;18.10;63.30;;;;;;5077923;27;45517;-76
2023/03/27 08:07:10;;;;;;;1.30;1.30;;;18.20;62.90;;;;;;5088224;27;44798;-78
2023/03/27 08:09:42;;;;;;;1.50;1.50;;;18.20;62.40;;;;;;5104315;27;43420;-76
2023/03/27 08:12:11;;;;;;;1.50;1.50;;;18.20;62.60;;;;;;5090154;27;44197;-76
2023/03/27 08:14:44;;;;;;;1.40;1.40;;;18.20;62.90;;;;;;5087572;27;43840;-78
2023/03/27 08:17:19;;;;;;;1.40;1.40;;;18.20;62.60;;;;;;5088317;27;44893;-77
2023/03/27 08:19:49;;;;;;;1.17;1.17;;;18.10;62.60;;;;;;5085767;27;43450;-75
2023/03/27 08:22:19;;;;;;;1.33;1.33;;;18.10;62.90;;;;;;5086825;27;43625;-76
2023/03/27 08:25:08;;;;;;;1.67;1.63;;;18.10;63.10;;;;;;5096205;27;43511;-76
2023/03/27 08:27:38;;;;;;;1.50;1.50;;;18.00;63.30;;;;;;5085136;27;43558;-77
2023/03/27 08:30:08;;;;;;;1.57;1.57;;;18.00;63.00;;;;;;5087998;27;43932;-77
2023/03/27 08:32:42;;;;;;;1.63;1.53;;;18.00;63.20;;;;;;5088093;27;43400;-75
2023/03/27 08:35:11;;;;;;;1.60;1.50;;;17.90;63.30;;;;;;5098545;27;44426;-77
2023/03/27 08:37:40;;;;;;;1.47;1.47;;;17.90;64.10;;;;;;5103366;27;43967;-77
2023/03/27 08:40:29;;;;;;;1.87;1.77;;;17.90;63.50;;;;;;5086541;27;43391;-76
2023/03/27 08:43:21;;;;;;;1.77;1.70;;;17.90;63.60;;;;;;5063063;28;43829;-76
2023/03/27 08:45:51;;;;;;;1.40;1.40;;;17.90;63.30;;;;;;5086658;27;45771;-76
2023/03/27 08:48:24;;;;;;;1.80;1.70;;;17.90;63.40;;;;;;5088289;27;43950;-76
2023/03/27 08:50:53;;;;;;;1.47;1.47;;;17.90;63.50;;;;;;5084905;28;44108;-76
2023/03/27 08:53:27;;;;;;;1.70;1.70;;;17.90;63.60;;;;;;5079228;28;43478;-75
2023/03/27 08:55:59;;;;;;;1.50;1.50;;;17.80;63.60;;;;;;5097381;27;44050;-78
2023/03/27 08:58:36;;;;;;;1.40;1.40;;;17.90;63.60;;;;;;5087170;27;44989;-77
2023/03/27 09:01:28;;;;;;;1.40;1.40;;;18.00;63.40;;;;;;5081631;27;43553;-76
2023/03/27 09:04:02;;;;;;;1.43;1.43;;;18.10;63.00;;;;;;5083368;27;43721;-77
2023/03/27 09:06:38;;;;;;;1.67;1.57;;;18.10;62.50;;;;;;5087976;27;44168;-77
2023/03/27 09:09:09;;;;;;;1.67;1.53;;;18.10;62.60;;;;;;5083494;27;44750;-76
2023/03/27 09:11:46;;;;;;;1.70;1.60;;;18.10;63.00;;;;;;5086531;27;43429;-77
2023/03/27 09:14:24;;;;;;;1.30;1.30;;;18.10;62.80;;;;;;5105300;27;43394;-77
2023/03/27 09:16:52;;;;;;;1.57;1.57;;;18.10;62.70;;;;;;5087514;27;46022;-76
2023/03/27 09:19:35;;;;;;;1.50;1.50;;;18.00;62.90;;;;;;5092002;27;43468;-75
2023/03/27 09:22:05;;;;;;;1.60;1.60;;;18.00;63.00;;;;;;5078710;27;43435;-75
2023/03/27 09:24:55;;;;;;;1.50;1.50;;;17.90;63.10;;;;;;5088239;27;43515;-76
2023/03/27 09:27:56;;;;;;;1.40;1.40;;;17.90;63.20;;;;;;5054428;27;44126;-76
2023/03/27 09:30:36;;;;;;;1.40;1.40;;;17.90;63.80;;;;;;5087023;27;43893;-77
2023/03/27 09:33:26;;;;;;;1.50;1.50;;;17.90;63.30;;;;;;5101953;27;43427;-78
2023/03/27 09:35:55;;;;;;;1.70;1.70;;;17.90;63.40;;;;;;5096615;27;43420;-77
2023/03/27 09:38:26;;;;;;;1.80;1.70;;;17.90;63.50;;;;;;5082621;27;45485;-77
2023/03/27 09:40:57;;;;;;;1.63;1.63;;;17.90;63.50;;;;;;5085451;27;44683;-77
2023/03/27 09:43:30;;;;;;;1.50;1.50;;;17.90;63.30;;;;;;5085725;27;43427;-75
2023/03/27 09:46:01;;;;;;;1.40;1.40;;;17.90;63.30;;;;;;5091272;27;44008;-77
2023/03/27 09:48:35;;;;;;;1.40;1.40;;;17.90;63.40;;;;;;5090714;27;45207;-77
2023/03/27 09:51:40;;;;;;;2.13;1.80;;;17.90;63.40;;;;;;5075919;27;43511;-77
2023/03/27 09:54:16;;;;;;;3.00;1.60;;;17.90;63.50;;;;;;5080023;27;43784;-77
2023/03/27 09:56:46;;;;;;;2.00;1.50;;;17.90;63.80;;;;;;5089288;27;43551;-78
2023/03/27 09:59:26;;;;;;;1.77;1.67;;;18.00;63.60;;;;;;5088001;27;44923;-76
2023/03/27 10:02:09;;;;;;;1.83;1.83;;;18.10;63.20;;;;;;5082778;27;43478;-74
2023/03/27 10:04:38;;;;;;;1.97;1.87;;;18.10;62.70;;;;;;5068637;27;43416;-75
2023/03/27 10:07:07;;;;;;;1.30;1.30;;;18.10;62.60;;;;;;5105585;27;43355;-76
2023/03/27 10:10:06;;;;;;;2.33;1.60;;;18.10;63.10;;;;;;5088346;27;44062;-76
2023/03/27 10:12:40;;;;;;;1.67;1.57;;;18.10;63.20;;;;;;5083401;27;43450;-77
2023/03/27 10:15:27;;;;;;;2.07;1.90;;;18.10;63.00;;;;;;5106586;27;43380;-78
2023/03/27 10:17:55;;;;;;;1.70;1.70;;;18.00;63.10;;;;;;5085074;27;44078;-76
2023/03/27 10:20:26;;;;;;;2.80;1.83;;;18.00;63.20;;;;;;5084263;27;45510;-77
2023/03/27 10:22:55;;;;;;;1.77;1.67;;;17.90;63.30;;;;;;5090306;27;45036;-76
2023/03/27 10:25:30;;;;;;;1.67;1.67;;;17.90;63.70;;;;;;5090702;27;43492;-76
2023/03/27 10:28:17;;;;;;;1.63;1.63;;;17.90;63.40;;;;;;5089729;27;43622;-75
2023/03/27 10:31:08;;;;;;;1.50;1.50;;;17.90;63.50;;;;;;5100412;27;43755;-77
2023/03/27 10:34:03;;;;;;;1.70;1.60;;;17.90;63.50;;;;;;5080941;27;43566;-76
2023/03/27 10:36:50;;;;;;;2.03;1.90;;;17.90;63.60;;;;;;5088893;27;43494;-77
2023/03/27 10:39:21;;;;;;;1.93;1.90;;;17.80;63.90;;;;;;5084443;27;43441;-73
2023/03/27 10:42:13;;;;;;;1.83;1.73;;;17.90;64.00;;;;;;5089968;27;44881;-77
2023/03/27 10:44:46;;;;;;;1.90;1.80;;;18.00;63.60;;;;;;5081817;27;44027;-77
2023/03/27 10:47:19;;;;;;;1.43;1.43;;;18.00;63.10;;;;;;5090732;27;43988;-75
2023/03/27 10:49:51;;;;;;;1.63;1.63;;;18.00;63.00;;;;;;5078699;27;43431;-77
2023/03/27 10:52:33;;;;;;;1.73;1.73;;;18.00;63.30;;;;;;5086462;27;44044;-74
2023/03/27 10:55:40;;;;;;;1.90;1.80;;;18.00;63.60;;;;;;5086100;27;44931;-75
2023/03/27 10:58:22;;;;;;;1.40;1.40;;;18.00;63.20;;;;;;5089981;27;43980;-76
2023/03/27 11:00:53;;;;;;;2.00;1.93;;;17.90;63.30;;;;;;5078038;27;43832;-70
2023/03/27 11:03:25;;;;;;;1.50;1.50;;;17.90;63.50;;;;;;5084514;28;43811;-76
2023/03/27 11:05:59;;;;;;;1.60;1.50;;;17.90;63.60;;;;;;5089028;27;43413;-76
2023/03/27 11:08:35;;;;;;;1.87;1.80;;;17.90;63.90;;;;;;5088429;27;43494;-74
2023/03/27 11:11:07;;;;;;;1.57;1.57;;;17.90;63.50;;;;;;5085624;27;44006;-77
2023/03/27 11:13:46;;;;;;;1.60;1.60;;;17.80;64.20;;;;;;5086847;27;43823;-75
2023/03/27 11:16:18;;;;;;;1.50;1.50;;;17.80;63.50;;;;;;5088783;27;45017;-77
2023/03/27 11:19:24;;;;;;;1.60;1.50;;;17.80;63.70;;;;;;5100890;27;43440;-76
2023/03/27 11:22:14;;;;;;;1.90;1.80;;;17.80;63.80;;;;;;5072139;27;43466;-75
2023/03/27 11:24:49;;;;;;;1.90;1.90;;;17.80;64.00;;;;;;5088164;27;44034;-76
2023/03/27 11:27:19;;;;;;;1.80;1.70;;;17.90;63.70;;;;;;5088457;27;44437;-77
2023/03/27 11:29:50;;;;;;;1.60;1.60;;;18.00;63.30;;;;;;5086530;27;43484;-78
2023/03/27 11:32:21;;;;;;;1.87;1.77;;;18.00;63.20;;;;;;5086871;27;43942;-75
2023/03/27 11:34:58;;;;;;;1.80;1.70;;;18.00;63.40;;;;;;5092552;27;44062;-77
2023/03/27 11:37:40;;;;;;;1.50;1.50;;;18.00;63.70;;;;;;5087083;27;45086;-76
2023/03/27 11:40:12;;;;;;;1.40;1.40;;;17.90;63.40;;;;;;5086382;27;43447;-77
2023/03/27 11:42:42;;;;;;;1.50;1.50;;;17.90;63.20;;;;;;5082489;27;43405;-78
2023/03/27 11:45:15;;;;;;;1.63;1.60;;;17.90;63.50;;;;;;5079506;27;44041;-75
2023/03/27 11:48:08;;;;;;;1.50;1.50;;;17.90;63.60;;;;;;5094777;27;43449;-75
2023/03/27 11:50:49;;;;;;;1.60;1.60;;;17.80;63.60;;;;;;5075404;27;43565;-74
2023/03/27 11:53:44;;;;;;;1.70;1.70;;;17.90;63.90;;;;;;5080124;27;43421;-75
2023/03/27 11:56:31;;;;;;;1.50;1.50;;;17.90;63.60;;;;;;5087027;27;43927;-77
2023/03/27 11:59:21;;;;;;;1.80;1.80;;;17.90;63.80;;;;;;5080302;28;44179;-77
2023/03/27 12:02:00;;;;;;;1.43;1.43;;;17.80;63.80;;;;;;5080847;27;43407;-74
2023/03/27 12:04:43;;;;;;;1.83;1.73;;;17.80;63.80;;;;;;5083213;27;43376;-77
2023/03/27 12:07:40;;;;;;;1.60;1.60;;;17.80;64.10;;;;;;5100866;27;44751;-75
2023/03/27 12:10:26;;;;;;;2.10;1.37;;;17.90;64.00;;;;;;5088659;27;43395;-78
2023/03/27 12:13:28;;;;;;;2.00;1.90;;;18.00;63.70;;;;;;5083714;27;43470;-77
2023/03/27 12:16:39;;;;;;;1.57;1.53;;;18.10;63.10;;;;;;5081800;27;43530;-77
2023/03/27 12:19:19;;;;;;;1.50;1.50;;;18.00;62.90;;;;;;5087842;27;45311;-77
2023/03/27 12:22:24;;;;;;;1.60;1.60;;;18.00;63.30;;;;;;5085488;27;43395;-77
2023/03/27 12:25:05;;;;;;;1.40;1.40;;;18.00;63.10;;;;;;5071512;27;43504;-76
2023/03/27 12:28:01;;;;;;;1.37;1.37;;;18.00;63.30;;;;;;5089917;27;43457;-77
2023/03/27 12:30:42;;;;;;;1.20;1.20;;;17.90;63.40;;;;;;5086413;27;43959;-76
2023/03/27 12:33:29;;;;;;;1.67;1.67;;;17.90;63.50;;;;;;5075899;27;43858;-77
2023/03/27 12:35:58;;;;;;;1.50;1.50;;;17.80;63.70;;;;;;5082078;27;43471;-76
2023/03/27 12:38:27;;;;;;;1.53;1.50;;;17.90;63.70;;;;;;5081557;27;43638;-77
2023/03/27 12:41:09;;;;;;;1.40;1.40;;;17.80;63.50;;;;;;5083404;27;45849;-77
2023/03/27 12:44:02;;;;;;;1.40;1.40;;;17.80;63.70;;;;;;5082785;27;43430;-76
2023/03/27 12:46:38;;;;;;;1.57;1.57;;;17.80;63.80;;;;;;5087549;27;43357;-76
2023/03/27 12:49:41;;;;;;;1.30;1.30;;;17.80;63.80;;;;;;5086344;27;43448;-76
2023/03/27 12:52:24;;;;;;;1.60;1.50;;;17.80;64.10;;;;;;5078749;27;44060;-75
2023/03/27 12:55:08;;;;;;;1.60;1.60;;;17.80;63.80;;;;;;5087499;27;43481;-76
2023/03/27 12:58:01;;;;;;;1.20;1.20;;;17.80;63.80;;;;;;5093662;27;43973;-78
2023/03/27 13:00:53;;;;;;;1.50;1.30;;;17.80;63.90;;;;;;5094517;27;43421;-77
2023/03/27 13:03:42;;;;;;;1.20;1.20;;;17.80;64.10;;;;;;5087147;27;44755;-76
2023/03/27 13:06:21;;;;;;;1.27;1.27;;;17.80;64.30;;;;;;5081757;27;44984;-76
2023/03/27 13:08:58;;;;;;;1.20;1.20;;;17.80;64.00;;;;;;5087838;27;43465;-72
2023/03/27 13:11:40;;;;;;;1.40;1.40;;;18.00;63.70;;;;;;5084963;27;43551;-76
2023/03/27 13:14:22;;;;;;;1.40;1.40;;;18.10;64.00;;;;;;5086767;27;44040;-77
2023/03/27 13:17:05;;;;;;;1.40;1.40;;;18.00;62.80;;;;;;5077271;27;43809;-71
2023/03/27 13:19:48;;;;;;;1.23;1.23;;;18.00;63.10;;;;;;5088513;27;43533;-76
2023/03/27 13:22:29;;;;;;;1.40;1.40;;;18.00;63.30;;;;;;5081052;27;43563;-76
2023/03/27 13:25:16;;;;;;;1.40;1.40;;;18.00;63.00;;;;;;5079974;27;43927;-77
2023/03/27 13:27:50;;;;;;;1.10;1.10;;;18.00;63.40;;;;;;5090417;27;44651;-77
2023/03/27 13:30:40;;;;;;;1.30;1.30;;;17.90;63.30;;;;;;5091296;27;43519;-74
2023/03/27 13:33:29;;;;;;;1.20;1.20;;;17.90;63.50;;;;;;5088632;27;43599;-76
2023/03/27 13:36:07;;;;;;;1.07;1.07;;;17.80;63.80;;;;;;5072530;27;45056;-75